createdAt,value
2023-01-19T00:01:07.418Z,2.60
2023-01-19T00:03:35.489Z,2.60
2023-01-19T00:06:09.805Z,2.60
2023-01-19T00:08:37.061Z,2.50
2023-01-19T00:11:05.125Z,2.50
2023-01-19T00:13:32.809Z,2.40
2023-01-19T00:15:59.727Z,2.40
2023-01-19T00:18:26.637Z,2.40
2023-01-19T00:20:53.473Z,2.50
2023-01-19T00:23:21.068Z,2.50
2023-01-19T00:25:49.076Z,2.60
2023-01-19T00:28:18.832Z,2.60
2023-01-19T00:30:45.871Z,2.60
2023-01-19T00:33:14.481Z,2.60
2023-01-19T00:35:42.628Z,2.60
2023-01-19T00:38:11.852Z,2.50
2023-01-19T00:40:38.733Z,2.50
2023-01-19T00:43:13.680Z,2.50
2023-01-19T00:45:40.759Z,2.50
2023-01-19T00:48:08.250Z,2.50
2023-01-19T00:50:35.156Z,2.60
2023-01-19T00:53:03.197Z,2.60
2023-01-19T00:55:33.162Z,2.60
2023-01-19T00:57:59.976Z,2.60
2023-01-19T01:00:27.128Z,2.60
2023-01-19T01:02:54.306Z,2.60
2023-01-19T01:05:22.055Z,2.60
2023-01-19T01:07:49.780Z,2.60
2023-01-19T01:10:25.168Z,2.70
2023-01-19T01:12:57.152Z,2.60
2023-01-19T01:15:27.369Z,2.70
2023-01-19T01:17:55.419Z,2.70
2023-01-19T01:20:27.810Z,2.70
2023-01-19T01:22:56.504Z,2.60
2023-01-19T01:25:26.262Z,2.60
2023-01-19T01:27:54.688Z,2.60
2023-01-19T01:30:22.511Z,2.60
2023-01-19T01:32:49.964Z,2.60
2023-01-19T01:35:17.188Z,2.70
2023-01-19T01:37:44.164Z,2.60
2023-01-19T01:40:15.170Z,2.60
2023-01-19T01:42:43.046Z,2.60
2023-01-19T01:45:35.789Z,2.60
2023-01-19T01:48:18.730Z,2.60
2023-01-19T01:51:12.283Z,2.70
2023-01-19T01:53:41.036Z,2.70
2023-01-19T01:56:15.758Z,2.70
2023-01-19T01:58:43.259Z,2.70
2023-01-19T02:01:29.387Z,2.70
2023-01-19T02:03:58.134Z,2.70
2023-01-19T02:06:25.791Z,2.70
2023-01-19T02:09:22.543Z,2.70
2023-01-19T02:12:09.199Z,2.70
2023-01-19T02:14:37.327Z,2.60
2023-01-19T02:17:06.477Z,2.60
2023-01-19T02:19:43.843Z,2.60
2023-01-19T02:22:35.738Z,2.50
2023-01-19T02:25:05.464Z,2.60
2023-01-19T02:27:33.143Z,2.50
2023-01-19T02:30:03.616Z,2.50
2023-01-19T02:32:30.798Z,2.50
2023-01-19T02:34:58.163Z,2.50
2023-01-19T02:37:28.235Z,2.50
2023-01-19T02:40:01.678Z,2.50
2023-01-19T02:42:37.008Z,2.50
2023-01-19T02:45:06.883Z,2.50
2023-01-19T02:47:50.715Z,2.50
2023-01-19T02:50:41.909Z,2.40
2023-01-19T02:53:47.513Z,2.40
2023-01-19T02:56:55.551Z,2.50
2023-01-19T02:59:43.725Z,2.60
2023-01-19T03:02:40.637Z,2.60
2023-01-19T03:05:27.016Z,2.60
2023-01-19T03:08:42.584Z,2.70
2023-01-19T03:11:13.334Z,2.70
2023-01-19T03:13:56.348Z,2.70
2023-01-19T03:16:50.041Z,2.70
2023-01-19T03:19:32.719Z,2.70
2023-01-19T03:22:07.322Z,2.80
2023-01-19T03:24:43.226Z,2.70
2023-01-19T03:27:20.960Z,2.70
2023-01-19T03:29:55.135Z,2.70
2023-01-19T03:32:35.570Z,2.80
2023-01-19T03:35:10.571Z,2.80
2023-01-19T03:37:42.469Z,2.80
2023-01-19T03:40:11.328Z,2.80
2023-01-19T03:42:40.701Z,2.80
2023-01-19T03:45:09.172Z,2.80
2023-01-19T03:47:36.889Z,2.90
2023-01-19T03:50:11.516Z,2.90
2023-01-19T03:52:38.349Z,2.90
2023-01-19T03:55:06.833Z,2.90
2023-01-19T03:57:33.617Z,2.80
2023-01-19T04:00:00.541Z,2.80
2023-01-19T04:02:27.592Z,2.70
2023-01-19T04:04:54.642Z,2.70
2023-01-19T04:07:21.534Z,2.50
2023-01-19T04:09:48.366Z,2.40
2023-01-19T04:12:15.637Z,2.30
2023-01-19T04:14:42.687Z,2.30
2023-01-19T04:17:10.320Z,2.30
2023-01-19T04:19:37.252Z,2.20
2023-01-19T04:22:04.883Z,2.20
2023-01-19T04:24:31.839Z,2.20
2023-01-19T04:26:58.888Z,2.20
2023-01-19T04:29:26.487Z,2.20
2023-01-19T04:31:55.232Z,2.20
2023-01-19T04:34:48.445Z,2.20
2023-01-19T04:42:07.783Z,2.30
2023-01-19T04:49:11.074Z,2.20
2023-01-19T04:52:29.741Z,2.20
2023-01-19T04:55:24.191Z,2.20
2023-01-19T04:58:01.615Z,2.20
2023-01-19T05:01:19.482Z,2.10
2023-01-19T05:04:04.695Z,2.10
2023-01-19T05:39:30.705Z,1.60
2023-01-19T06:05:09.653Z,1.60
2023-01-19T06:36:54.505Z,1.50
2023-01-19T06:39:56.012Z,1.50
2023-01-19T06:42:19.189Z,1.50
2023-01-19T06:44:48.440Z,1.60
2023-01-19T06:47:16.800Z,1.60
2023-01-19T06:50:05.985Z,1.70
2023-01-19T06:52:34.845Z,1.60
2023-01-19T06:55:02.095Z,1.70
2023-01-19T06:57:29.960Z,1.70
2023-01-19T07:00:10.072Z,1.80
2023-01-19T07:02:53.092Z,1.80
2023-01-19T07:05:22.013Z,1.80
2023-01-19T07:07:56.862Z,1.90
2023-01-19T07:10:24.524Z,1.90
2023-01-19T07:12:52.322Z,1.80
2023-01-19T07:15:22.512Z,1.80
2023-01-19T07:17:50.111Z,1.80
2023-01-19T07:20:19.465Z,1.90
2023-01-19T07:22:46.628Z,1.90
2023-01-19T07:25:14.642Z,1.90
2023-01-19T07:27:42.811Z,1.90
2023-01-19T07:30:11.438Z,1.90
2023-01-19T07:32:39.037Z,1.90
2023-01-19T07:35:06.368Z,1.90
2023-01-19T07:37:33.177Z,1.90
2023-01-19T07:40:00.218Z,1.90
2023-01-19T07:42:27.278Z,1.90
2023-01-19T07:44:54.593Z,1.90
2023-01-19T07:47:21.422Z,2.00
2023-01-19T07:49:48.360Z,2.00
2023-01-19T07:52:15.296Z,2.00
2023-01-19T07:54:42.286Z,2.00
2023-01-19T07:57:09.165Z,2.00
2023-01-19T07:59:35.987Z,2.00
2023-01-19T08:02:02.971Z,2.00
2023-01-19T08:04:29.963Z,2.00
2023-01-19T08:06:57.031Z,2.00
2023-01-19T08:09:24.317Z,2.00
2023-01-19T08:11:51.569Z,2.00
2023-01-19T08:14:18.401Z,2.00
2023-01-19T08:16:45.906Z,2.10
2023-01-19T08:19:12.765Z,2.10
2023-01-19T08:21:39.643Z,2.10
2023-01-19T08:24:06.815Z,2.10
2023-01-19T08:26:35.753Z,2.10
2023-01-19T08:29:05.274Z,2.10
2023-01-19T08:31:32.622Z,2.20
2023-01-19T08:33:59.647Z,2.20
2023-01-19T08:36:26.957Z,2.20
2023-01-19T08:38:53.817Z,2.20
2023-01-19T08:41:20.825Z,2.20
2023-01-19T08:43:48.362Z,2.20
2023-01-19T08:46:21.309Z,2.20
2023-01-19T08:48:49.276Z,2.30
2023-01-19T08:51:17.193Z,2.30
2023-01-19T08:53:44.137Z,2.30
2023-01-19T08:56:13.641Z,2.30
2023-01-19T08:58:43.112Z,2.30
2023-01-19T09:01:13.757Z,2.30
2023-01-19T09:03:41.044Z,2.40
2023-01-19T09:06:10.197Z,2.40
2023-01-19T09:08:38.218Z,2.40
2023-01-19T09:11:11.050Z,2.40
2023-01-19T09:13:38.481Z,2.40
2023-01-19T09:16:09.412Z,2.50
2023-01-19T09:18:36.272Z,2.50
2023-01-19T09:21:04.407Z,2.50
2023-01-19T09:23:31.563Z,2.50
2023-01-19T09:26:02.948Z,2.60
2023-01-19T09:28:29.930Z,2.60
2023-01-19T09:30:57.040Z,2.60
2023-01-19T09:33:25.362Z,2.60
2023-01-19T09:35:52.325Z,2.60
2023-01-19T09:38:20.516Z,2.60
2023-01-19T09:40:59.474Z,2.60
2023-01-19T09:43:45.351Z,2.60
2023-01-19T09:46:44.774Z,2.60
2023-01-19T09:49:21.524Z,2.60
2023-01-19T09:51:51.119Z,2.60
2023-01-19T09:54:47.352Z,2.60
2023-01-19T09:57:14.781Z,2.60
2023-01-19T09:59:47.712Z,2.60
2023-01-19T10:02:42.561Z,2.70
2023-01-19T10:05:52.521Z,2.70
2023-01-19T10:08:51.950Z,2.70
2023-01-19T10:11:51.478Z,2.70
2023-01-19T10:15:16.614Z,2.70
2023-01-19T10:18:12.285Z,2.70
2023-01-19T10:20:47.912Z,2.80
2023-01-19T10:23:39.325Z,2.80
2023-01-19T10:26:26.399Z,2.90
2023-01-19T10:29:18.268Z,3.00
2023-01-19T10:32:10.464Z,3.10
2023-01-19T10:34:37.451Z,3.30
2023-01-19T10:37:33.020Z,3.40
2023-01-19T10:40:09.063Z,3.50
2023-01-19T10:42:38.824Z,3.50
2023-01-19T10:45:31.422Z,3.40
2023-01-19T10:48:06.372Z,3.40
2023-01-19T10:50:37.184Z,3.40
2023-01-19T10:53:06.625Z,3.40
2023-01-19T10:55:39.395Z,3.40
2023-01-19T10:58:28.421Z,3.40
2023-01-19T11:00:55.545Z,3.30
2023-01-19T11:03:31.561Z,3.30
2023-01-19T11:06:30.155Z,3.30
2023-01-19T11:09:31.001Z,3.30
2023-01-19T11:11:58.194Z,3.30
2023-01-19T11:14:29.480Z,3.30
2023-01-19T11:16:58.835Z,3.30
2023-01-19T11:19:33.665Z,3.30
2023-01-19T11:22:24.849Z,3.30
2023-01-19T11:24:54.545Z,3.30
2023-01-19T11:27:22.156Z,3.30
2023-01-19T11:30:22.576Z,3.40
2023-01-19T11:32:49.548Z,3.40
2023-01-19T11:35:39.840Z,3.40
2023-01-19T11:38:12.738Z,3.40
2023-01-19T11:40:57.717Z,3.50
2023-01-19T11:43:39.713Z,3.50
2023-01-19T11:46:17.452Z,3.50
2023-01-19T11:49:01.900Z,3.50
2023-01-19T11:51:37.243Z,3.50
2023-01-19T11:54:29.542Z,3.40
2023-01-19T11:57:00.018Z,3.40
2023-01-19T11:59:27.013Z,3.40
2023-01-19T12:02:00.383Z,3.50
2023-01-19T12:04:38.417Z,3.50
2023-01-19T12:07:10.526Z,3.60
2023-01-19T12:09:51.546Z,3.60
2023-01-19T12:12:35.232Z,3.60
2023-01-19T12:15:25.257Z,3.60
2023-01-19T12:17:58.682Z,3.60
2023-01-19T12:20:40.430Z,3.50
2023-01-19T12:23:39.291Z,3.60
2023-01-19T12:26:40.985Z,3.60
2023-01-19T12:29:19.801Z,3.60
2023-01-19T12:32:19.209Z,3.80
2023-01-19T12:34:55.898Z,3.90
2023-01-19T12:37:33.589Z,3.80
2023-01-19T12:40:25.502Z,3.80
2023-01-19T12:43:05.461Z,3.80
2023-01-19T12:45:39.999Z,3.70
2023-01-19T12:48:25.294Z,3.70
2023-01-19T12:50:53.949Z,3.80
2023-01-19T12:53:22.709Z,4.00
2023-01-19T12:56:10.165Z,4.00
2023-01-19T12:59:01.911Z,3.90
2023-01-19T13:01:58.100Z,4.00
2023-01-19T13:05:09.456Z,3.90
2023-01-19T13:08:37.897Z,4.00
2023-01-19T13:12:16.575Z,4.20
2023-01-19T13:15:43.433Z,4.20
2023-01-19T13:18:30.136Z,4.10
2023-01-19T13:21:58.934Z,4.00
2023-01-19T13:25:10.833Z,4.00
2023-01-19T13:28:02.287Z,4.10
2023-01-19T13:31:37.136Z,4.10
2023-01-19T13:33:56.654Z,4.20
2023-01-19T13:36:43.250Z,4.20
2023-01-19T13:40:27.136Z,4.20
2023-01-19T13:43:29.305Z,4.30
2023-01-19T13:46:31.736Z,4.40
2023-01-19T13:49:55.317Z,4.70
2023-01-19T13:53:08.156Z,5.00
2023-01-19T13:56:59.073Z,5.00
2023-01-19T13:59:40.719Z,4.80
2023-01-19T14:02:21.714Z,4.60
2023-01-19T14:04:48.782Z,4.40
2023-01-19T14:07:26.138Z,4.30
2023-01-19T14:10:24.030Z,4.30
2023-01-19T14:13:34.298Z,4.20
2023-01-19T14:16:07.336Z,4.20
2023-01-19T14:18:39.486Z,4.20
2023-01-19T14:21:13.472Z,4.20
2023-01-19T14:23:55.054Z,4.10
2023-01-19T14:26:46.340Z,4.10
2023-01-19T14:29:34.865Z,4.10
2023-01-19T14:32:06.613Z,4.00
2023-01-19T14:35:12.855Z,4.00
2023-01-19T14:37:51.280Z,4.00
2023-01-19T14:40:24.431Z,3.90
2023-01-19T14:42:55.295Z,3.90
2023-01-19T14:45:37.934Z,3.90
2023-01-19T14:48:18.215Z,3.80
2023-01-19T14:51:02.112Z,3.90
2023-01-19T14:53:37.215Z,4.20
2023-01-19T14:56:07.243Z,4.40
2023-01-19T14:58:38.627Z,4.40
2023-01-19T15:01:20.148Z,4.50
2023-01-19T15:03:49.691Z,4.50
2023-01-19T15:06:23.603Z,4.50
2023-01-19T15:08:58.457Z,4.40
2023-01-19T15:11:35.026Z,4.20
2023-01-19T15:14:03.052Z,4.10
2023-01-19T15:16:36.984Z,3.90
2023-01-19T15:19:18.524Z,3.80
2023-01-19T15:21:54.903Z,3.70
2023-01-19T15:24:28.103Z,3.60
2023-01-19T15:27:02.976Z,3.50
2023-01-19T15:29:34.626Z,3.40
2023-01-19T15:32:04.284Z,3.40
2023-01-19T15:34:31.187Z,3.40
2023-01-19T15:36:59.908Z,3.40
2023-01-19T15:39:30.687Z,3.30
2023-01-19T15:42:05.175Z,3.30
2023-01-19T15:44:42.319Z,3.30
2023-01-19T15:47:20.273Z,3.30
2023-01-19T15:50:01.524Z,3.20
2023-01-19T15:52:45.190Z,3.20
2023-01-19T15:55:31.970Z,3.10
2023-01-19T15:58:15.948Z,3.10
2023-01-19T16:00:49.314Z,3.10
2023-01-19T16:03:28.966Z,3.00
2023-01-19T16:06:04.911Z,2.90
2023-01-19T16:08:32.415Z,2.90
2023-01-19T16:11:20.617Z,2.90
2023-01-19T16:13:47.760Z,2.90
2023-01-19T16:16:19.729Z,2.90
2023-01-19T16:18:47.701Z,2.80
2023-01-19T16:21:17.917Z,2.80
2023-01-19T16:23:44.903Z,2.80
2023-01-19T16:26:37.314Z,2.80
2023-01-19T16:29:09.697Z,2.80
2023-01-19T16:31:45.558Z,2.70
2023-01-19T16:34:13.003Z,2.70
2023-01-19T16:36:43.329Z,2.70
2023-01-19T16:39:15.498Z,2.70
2023-01-19T16:41:45.296Z,2.70
2023-01-19T16:44:16.817Z,2.70
2023-01-19T16:46:49.237Z,2.70
2023-01-19T16:49:22.743Z,2.70
2023-01-19T16:51:50.386Z,2.70
2023-01-19T16:54:25.595Z,2.70
2023-01-19T16:56:55.149Z,2.70
2023-01-19T16:59:22.778Z,2.70
2023-01-19T17:01:51.980Z,2.70
2023-01-19T17:04:21.425Z,2.70
2023-01-19T17:06:52.565Z,2.70
2023-01-19T17:09:19.628Z,2.70
2023-01-19T17:11:46.919Z,2.70
2023-01-19T17:14:22.959Z,2.70
2023-01-19T17:16:50.594Z,2.60
2023-01-19T17:19:20.601Z,2.60
2023-01-19T17:21:49.909Z,2.60
2023-01-19T17:24:18.778Z,2.60
2023-01-19T17:26:48.563Z,2.70
2023-01-19T17:29:20.612Z,2.70
2023-01-19T17:31:51.090Z,2.60
2023-01-19T17:34:18.960Z,2.70
2023-01-19T17:36:46.227Z,2.70
2023-01-19T17:39:15.089Z,2.70
2023-01-19T17:41:42.590Z,2.70
2023-01-19T17:44:10.639Z,2.70
2023-01-19T17:46:40.039Z,2.70
2023-01-19T17:49:08.529Z,2.70
2023-01-19T17:51:36.352Z,2.60
2023-01-19T17:54:05.704Z,2.70
2023-01-19T17:56:36.821Z,2.70
2023-01-19T17:59:06.624Z,2.70
2023-01-19T18:01:40.051Z,2.70
2023-01-19T18:04:08.805Z,2.70
2023-01-19T18:06:37.080Z,2.70
2023-01-19T18:09:07.361Z,2.70
2023-01-19T18:11:35.176Z,2.70
2023-01-19T18:14:02.380Z,2.70
2023-01-19T18:16:34.553Z,2.70
2023-01-19T18:19:05.673Z,2.70
2023-01-19T18:21:33.031Z,2.70
2023-01-19T18:24:05.499Z,2.70
2023-01-19T18:26:37.599Z,2.70
2023-01-19T18:29:09.522Z,2.70
2023-01-19T18:31:38.161Z,2.70
2023-01-19T18:34:05.573Z,2.70
2023-01-19T18:36:34.185Z,2.70
2023-01-19T18:39:04.576Z,2.70
2023-01-19T18:41:31.966Z,2.60
2023-01-19T18:44:00.221Z,2.60
2023-01-19T18:46:27.626Z,2.60
2023-01-19T18:48:54.947Z,2.60
2023-01-19T18:51:23.593Z,2.60
2023-01-19T18:53:50.878Z,2.60
2023-01-19T18:56:18.135Z,2.60
2023-01-19T18:58:47.627Z,2.60
2023-01-19T19:01:23.387Z,2.50
2023-01-19T19:03:55.654Z,2.60
2023-01-19T19:06:27.117Z,2.50
2023-01-19T19:09:01.550Z,2.50
2023-01-19T19:11:29.911Z,2.50
2023-01-19T19:14:02.180Z,2.50
2023-01-19T19:16:33.364Z,2.50
2023-01-19T19:19:06.170Z,2.50
2023-01-19T19:21:34.067Z,2.50
2023-01-19T19:24:06.193Z,2.50
2023-01-19T19:26:36.248Z,2.50
2023-01-19T19:29:09.036Z,2.50
2023-01-19T19:31:36.448Z,2.50
2023-01-19T19:34:03.745Z,2.50
2023-01-19T19:36:31.728Z,2.50
2023-01-19T19:39:01.967Z,2.40
2023-01-19T19:41:32.580Z,2.40
2023-01-19T19:44:09.979Z,2.40
2023-01-19T19:46:42.694Z,2.40
2023-01-19T19:49:10.012Z,2.40
2023-01-19T19:51:37.104Z,2.30
2023-01-19T19:54:06.968Z,2.30
2023-01-19T19:56:52.068Z,2.30
2023-01-19T19:59:19.619Z,2.40
2023-01-19T20:01:47.179Z,2.40
2023-01-19T20:04:14.750Z,2.40
2023-01-19T20:06:44.777Z,2.40
2023-01-19T20:09:14.135Z,2.30
2023-01-19T20:11:43.260Z,2.30
2023-01-19T20:14:18.274Z,2.30
2023-01-19T20:16:45.543Z,2.30
2023-01-19T20:19:13.940Z,2.20
2023-01-19T20:21:43.543Z,2.20
2023-01-19T20:24:20.522Z,2.30
2023-01-19T20:26:53.629Z,2.30
2023-01-19T20:29:21.352Z,2.20
2023-01-19T20:31:55.473Z,2.20
2023-01-19T20:34:28.275Z,2.10
2023-01-19T20:36:57.235Z,2.10
2023-01-19T20:39:43.345Z,2.00
2023-01-19T20:42:11.536Z,2.00
2023-01-19T20:44:38.578Z,2.00
2023-01-19T20:47:09.813Z,2.00
2023-01-19T20:49:38.097Z,2.00
2023-01-19T20:52:08.213Z,2.00
2023-01-19T20:54:36.803Z,2.00
2023-01-19T20:57:03.983Z,2.00
2023-01-19T20:59:31.913Z,2.00
2023-01-19T21:02:00.102Z,2.00
2023-01-19T21:04:27.459Z,1.90
2023-01-19T21:06:54.623Z,1.90
2023-01-19T21:09:25.778Z,1.90
2023-01-19T21:11:58.370Z,1.90
2023-01-19T21:14:29.057Z,1.90
2023-01-19T21:16:59.063Z,1.90
2023-01-19T21:19:26.737Z,1.90
2023-01-19T21:21:56.609Z,1.90
2023-01-19T21:24:30.760Z,1.80
2023-01-19T21:27:01.910Z,1.80
2023-01-19T21:29:29.261Z,1.80
2023-01-19T21:31:57.687Z,1.80
2023-01-19T21:34:24.833Z,1.80
2023-01-19T21:37:05.821Z,1.80
2023-01-19T21:39:34.887Z,1.70
2023-01-19T21:42:02.124Z,1.70
2023-01-19T21:44:29.293Z,1.70
2023-01-19T21:46:59.941Z,1.60
2023-01-19T21:49:28.174Z,1.70
2023-01-19T21:52:01.168Z,1.60
2023-01-19T21:54:29.989Z,1.60
2023-01-19T21:57:03.874Z,1.60
2023-01-19T21:59:32.557Z,1.60
2023-01-19T22:02:01.061Z,1.50
2023-01-19T22:04:28.444Z,1.50
2023-01-19T22:06:55.443Z,1.50
2023-01-19T22:09:22.724Z,1.40
2023-01-19T22:11:49.653Z,1.40
2023-01-19T22:14:17.004Z,1.40
2023-01-19T22:16:44.405Z,1.30
2023-01-19T22:19:14.330Z,1.30
2023-01-19T22:21:41.744Z,1.30
2023-01-19T22:24:08.997Z,1.20
2023-01-19T22:26:37.098Z,1.20
2023-01-19T22:29:11.017Z,1.20
2023-01-19T22:31:39.720Z,1.20
2023-01-19T22:34:10.925Z,1.20
2023-01-19T22:36:40.810Z,1.20
2023-01-19T22:39:11.449Z,1.20
2023-01-19T22:41:46.201Z,1.10
2023-01-19T22:44:16.117Z,1.10
2023-01-19T22:47:28.051Z,1.20
2023-01-19T22:49:55.027Z,1.10
2023-01-19T22:52:22.118Z,1.10
2023-01-19T22:54:49.036Z,1.00
2023-01-19T22:57:16.002Z,1.00
2023-01-19T22:59:43.633Z,1.00
2023-01-19T23:02:12.359Z,1.00
2023-01-19T23:04:42.132Z,1.00
2023-01-19T23:07:09.712Z,1.00
2023-01-19T23:09:38.298Z,1.00
2023-01-19T23:12:05.532Z,1.10
2023-01-19T23:14:32.537Z,1.10
2023-01-19T23:16:59.535Z,1.10
2023-01-19T23:19:26.688Z,1.10
2023-01-19T23:21:53.853Z,1.10
2023-01-19T23:24:21.189Z,1.20
2023-01-19T23:26:50.722Z,1.20
2023-01-19T23:29:18.273Z,1.20
2023-01-19T23:31:48.799Z,1.20
2023-01-19T23:34:16.751Z,1.30
2023-01-19T23:36:44.630Z,1.30
2023-01-19T23:39:19.463Z,1.30
2023-01-19T23:41:47.328Z,1.30
2023-01-19T23:44:14.884Z,1.30
2023-01-19T23:46:42.065Z,1.40
2023-01-19T23:49:09.097Z,1.40
2023-01-19T23:51:36.041Z,1.40
2023-01-19T23:54:03.379Z,1.40
2023-01-19T23:56:34.327Z,1.40
2023-01-19T23:59:05.881Z,1.40
